createdAt,value
2023-01-28T00:00:54.656Z,17.20
2023-01-28T00:03:21.655Z,18.45
2023-01-28T00:05:48.702Z,16.67
2023-01-28T00:08:15.678Z,17.75
2023-01-28T00:10:45.562Z,19.02
2023-01-28T00:13:16.447Z,19.42
2023-01-28T00:18:10.203Z,14.50
2023-01-28T00:20:37.138Z,14.40
2023-01-28T00:23:04.087Z,20.80
2023-01-28T00:25:31.447Z,18.20
2023-01-28T00:27:58.371Z,17.98
2023-01-28T00:30:25.354Z,19.95
2023-01-28T00:32:54.824Z,18.60
2023-01-28T00:35:21.696Z,17.85
2023-01-28T00:37:48.727Z,17.85
2023-01-28T00:40:15.853Z,16.60
2023-01-28T00:42:42.666Z,18.08
2023-01-28T00:45:10.101Z,22.23
2023-01-28T00:47:36.971Z,17.55
2023-01-28T00:50:05.291Z,20.67
2023-01-28T00:52:52.454Z,20.95
2023-01-28T00:55:20.004Z,18.10
2023-01-28T00:57:46.912Z,17.25
2023-01-28T01:00:14.296Z,16.45
2023-01-28T01:02:42.239Z,15.90
2023-01-28T01:05:09.536Z,15.60
2023-01-28T01:07:41.689Z,17.23
2023-01-28T01:10:13.834Z,20.02
2023-01-28T01:12:41.296Z,18.73
2023-01-28T01:15:10.970Z,18.17
2023-01-28T01:17:43.837Z,18.87
2023-01-28T01:20:16.908Z,19.30
2023-01-28T01:22:43.750Z,18.23
2023-01-28T01:25:13.260Z,16.70
2023-01-28T01:27:40.566Z,16.80
2023-01-28T01:30:09.308Z,19.00
2023-01-28T01:32:36.563Z,17.20
2023-01-28T01:35:07.276Z,18.65
2023-01-28T01:40:05.500Z,13.82
2023-01-28T01:42:33.870Z,17.90
2023-01-28T01:45:07.997Z,18.10
2023-01-28T01:48:13.126Z,16.35
2023-01-28T01:51:05.665Z,16.40
2023-01-28T01:53:33.054Z,16.98
2023-01-28T01:56:06.513Z,15.30
2023-01-28T01:58:39.083Z,19.02
2023-01-28T02:01:07.278Z,18.92
2023-01-28T02:04:08.022Z,16.25
2023-01-28T02:06:37.542Z,17.30
2023-01-28T02:09:27.574Z,15.43
2023-01-28T02:12:07.110Z,16.63
2023-01-28T02:14:42.161Z,16.55
2023-01-28T02:17:09.784Z,17.55
2023-01-28T02:20:00.504Z,14.98
2023-01-28T02:23:12.830Z,19.13
2023-01-28T02:26:23.227Z,14.65
2023-01-28T02:29:15.453Z,15.45
2023-01-28T02:32:05.271Z,15.68
2023-01-28T02:35:20.513Z,15.27
2023-01-28T02:38:00.859Z,14.60
2023-01-28T02:41:00.986Z,15.88
2023-01-28T02:43:47.217Z,14.10
2023-01-28T02:46:44.944Z,16.92
2023-01-28T02:49:30.558Z,15.57
2023-01-28T02:52:46.875Z,16.10
2023-01-28T02:55:39.507Z,16.77
2023-01-28T02:58:26.052Z,17.70
2023-01-28T03:01:23.036Z,16.17
2023-01-28T03:04:08.097Z,15.73
2023-01-28T03:06:44.291Z,18.02
2023-01-28T03:09:22.822Z,17.30
2023-01-28T03:12:33.060Z,14.88
2023-01-28T03:15:44.976Z,14.80
2023-01-28T03:18:57.346Z,16.73
2023-01-28T03:21:57.212Z,16.88
2023-01-28T03:24:54.114Z,16.15
2023-01-28T03:28:08.715Z,15.85
2023-01-28T03:31:09.850Z,17.90
2023-01-28T03:33:56.539Z,17.83
2023-01-28T03:36:42.951Z,17.20
2023-01-28T03:39:09.797Z,20.00
2023-01-28T03:41:36.861Z,18.90
2023-01-28T03:44:22.343Z,17.35
2023-01-28T03:46:49.221Z,17.13
2023-01-28T03:49:17.457Z,17.60
2023-01-28T03:51:46.199Z,17.13
2023-01-28T03:54:13.581Z,16.75
2023-01-28T03:56:40.500Z,16.85
2023-01-28T03:59:07.965Z,18.75
2023-01-28T04:01:35.068Z,16.88
2023-01-28T04:04:02.128Z,16.27
2023-01-28T04:06:29.059Z,15.02
2023-01-28T04:08:59.255Z,17.27
2023-01-28T04:11:26.960Z,14.35
2023-01-28T04:13:53.850Z,16.35
2023-01-28T04:16:21.062Z,16.00
2023-01-28T04:18:48.295Z,19.27
2023-01-28T04:21:15.177Z,18.90
2023-01-28T04:23:42.073Z,15.90
2023-01-28T04:26:08.865Z,15.90
2023-01-28T04:28:35.755Z,18.58
2023-01-28T04:31:02.803Z,19.90
2023-01-28T04:33:29.787Z,16.98
2023-01-28T04:35:56.777Z,20.05
2023-01-28T04:38:23.848Z,19.98
2023-01-28T04:40:54.650Z,17.15
2023-01-28T04:45:49.283Z,14.75
2023-01-28T04:48:17.359Z,16.58
2023-01-28T04:50:45.668Z,17.40
2023-01-28T04:53:12.866Z,16.42
2023-01-28T04:55:40.028Z,20.58
2023-01-28T04:58:07.572Z,17.67
2023-01-28T05:00:34.508Z,16.90
2023-01-28T05:03:01.485Z,16.58
2023-01-28T05:05:28.434Z,18.77
2023-01-28T05:07:57.836Z,16.85
2023-01-28T05:10:26.536Z,16.30
2023-01-28T05:12:53.376Z,16.83
2023-01-28T05:15:21.111Z,17.52
2023-01-28T05:17:48.129Z,15.95
2023-01-28T05:20:15.432Z,19.00
2023-01-28T05:22:43.065Z,18.80
2023-01-28T05:25:10.419Z,19.10
2023-01-28T05:27:37.313Z,19.00
2023-01-28T05:30:06.684Z,17.52
2023-01-28T05:32:34.308Z,14.82
2023-01-28T05:35:01.624Z,18.73
2023-01-28T05:37:28.485Z,20.05
2023-01-28T05:39:55.434Z,16.30
2023-01-28T05:42:22.582Z,16.55
2023-01-28T05:44:49.538Z,20.88
2023-01-28T05:47:16.488Z,16.02
2023-01-28T05:49:43.406Z,16.63
2023-01-28T05:52:10.229Z,15.80
2023-01-28T05:54:37.053Z,19.92
2023-01-28T05:57:04.424Z,17.13
2023-01-28T05:59:31.689Z,17.42
2023-01-28T06:01:58.511Z,18.70
2023-01-28T06:04:25.381Z,16.63
2023-01-28T06:06:52.206Z,17.75
2023-01-28T06:09:19.097Z,20.20
2023-01-28T06:11:46.620Z,16.92
2023-01-28T06:14:13.499Z,15.82
2023-01-28T06:16:40.357Z,16.23
2023-01-28T06:19:07.222Z,15.82
2023-01-28T06:21:34.029Z,18.25
2023-01-28T06:24:01.018Z,15.68
2023-01-28T06:26:27.983Z,15.60
2023-01-28T06:28:54.824Z,18.17
2023-01-28T06:31:21.625Z,17.70
2023-01-28T06:33:48.495Z,15.55
2023-01-28T06:36:15.316Z,18.30
2023-01-28T06:38:42.279Z,15.80
2023-01-28T06:41:09.370Z,18.20
2023-01-28T06:43:36.272Z,16.25
2023-01-28T06:46:03.328Z,19.02
2023-01-28T06:48:30.396Z,18.55
2023-01-28T06:50:57.275Z,19.58
2023-01-28T06:53:24.187Z,18.67
2023-01-28T06:55:51.052Z,18.20
2023-01-28T06:58:18.069Z,15.45
2023-01-28T07:00:44.940Z,17.80
2023-01-28T07:03:11.944Z,18.52
2023-01-28T07:05:39.091Z,18.40
2023-01-28T07:08:06.489Z,18.67
2023-01-28T07:10:33.378Z,17.42
2023-01-28T07:13:00.277Z,17.90
2023-01-28T07:15:27.219Z,19.88
2023-01-28T07:17:54.169Z,16.83
2023-01-28T07:20:21.283Z,18.77
2023-01-28T07:22:48.122Z,19.08
2023-01-28T07:25:16.105Z,17.38
2023-01-28T07:27:52.340Z,15.00
2023-01-28T07:30:21.046Z,17.15
2023-01-28T07:32:53.318Z,16.80
2023-01-28T07:35:20.296Z,16.80
2023-01-28T07:37:54.064Z,17.73
2023-01-28T07:40:22.009Z,17.67
2023-01-28T07:42:49.099Z,16.42
2023-01-28T07:45:16.469Z,17.17
2023-01-28T07:47:43.352Z,17.77
2023-01-28T07:50:11.497Z,18.70
2023-01-28T07:52:44.379Z,20.58
2023-01-28T07:55:15.509Z,15.88
2023-01-28T07:58:11.345Z,17.15
2023-01-28T08:00:38.955Z,14.93
2023-01-28T08:03:16.817Z,17.02
2023-01-28T08:05:51.349Z,16.75
2023-01-28T08:08:18.963Z,17.20
2023-01-28T08:10:46.598Z,17.38
2023-01-28T08:13:15.371Z,18.65
2023-01-28T08:15:42.887Z,18.80
2023-01-28T08:18:13.285Z,17.15
2023-01-28T08:20:41.571Z,15.23
2023-01-28T08:23:17.619Z,16.05
2023-01-28T08:25:45.052Z,16.80
2023-01-28T08:28:13.007Z,16.05
2023-01-28T08:30:40.886Z,17.92
2023-01-28T08:33:10.748Z,15.25
2023-01-28T08:35:38.620Z,16.97
2023-01-28T08:38:07.373Z,16.35
2023-01-28T08:40:35.208Z,15.63
2023-01-28T08:43:05.101Z,15.27
2023-01-28T08:45:32.441Z,13.77
2023-01-28T08:48:05.424Z,16.52
2023-01-28T08:50:36.908Z,13.65
2023-01-28T08:53:12.435Z,14.52
2023-01-28T08:55:39.369Z,15.55
2023-01-28T08:58:10.547Z,16.13
2023-01-28T09:00:38.458Z,18.05
2023-01-28T09:03:06.599Z,17.15
2023-01-28T09:05:35.842Z,16.15
2023-01-28T09:08:06.011Z,16.70
2023-01-28T09:10:33.645Z,17.75
2023-01-28T09:13:12.880Z,15.43
2023-01-28T09:15:40.481Z,16.10
2023-01-28T09:18:07.622Z,15.95
2023-01-28T09:20:34.816Z,15.55
2023-01-28T09:23:03.064Z,14.77
2023-01-28T09:25:30.633Z,15.50
2023-01-28T09:27:58.135Z,16.27
2023-01-28T09:30:25.579Z,14.73
2023-01-28T09:32:54.635Z,18.35
2023-01-28T09:35:22.101Z,20.95
2023-01-28T09:37:49.156Z,18.25
2023-01-28T09:40:34.408Z,17.13
2023-01-28T09:43:27.483Z,17.20
2023-01-28T09:46:00.189Z,17.15
2023-01-28T09:48:38.163Z,15.23
2023-01-28T09:51:26.384Z,15.65
2023-01-28T09:53:56.736Z,14.43
2023-01-28T09:56:32.268Z,15.02
2023-01-28T09:59:20.632Z,17.15
2023-01-28T10:02:42.759Z,14.20
2023-01-28T10:05:18.495Z,14.35
2023-01-28T10:08:38.054Z,15.13
2023-01-28T10:11:55.936Z,19.02
2023-01-28T10:14:40.350Z,16.90
2023-01-28T10:17:28.798Z,16.48
2023-01-28T10:20:14.313Z,16.05
2023-01-28T10:23:15.862Z,18.75
2023-01-28T10:25:48.207Z,15.30
2023-01-28T10:28:29.775Z,17.30
2023-01-28T10:30:56.787Z,20.40
2023-01-28T10:33:39.930Z,16.63
2023-01-28T10:36:09.510Z,15.20
2023-01-28T10:38:56.444Z,16.58
2023-01-28T10:41:23.529Z,14.05
2023-01-28T10:43:50.897Z,13.32
2023-01-28T10:46:32.692Z,14.77
2023-01-28T10:49:25.184Z,13.27
2023-01-28T10:51:51.989Z,15.68
2023-01-28T10:54:28.213Z,13.88
2023-01-28T10:57:13.043Z,14.25
2023-01-28T10:59:41.797Z,13.57
2023-01-28T11:02:49.407Z,13.35
2023-01-28T11:05:29.524Z,12.82
2023-01-28T11:08:17.297Z,15.02
2023-01-28T11:10:46.347Z,13.80
2023-01-28T11:13:20.436Z,13.82
2023-01-28T11:16:12.354Z,13.73
2023-01-28T11:18:48.575Z,12.43
2023-01-28T11:21:29.534Z,13.18
2023-01-28T11:24:03.852Z,12.00
2023-01-28T11:26:54.426Z,14.00
2023-01-28T11:29:34.680Z,13.73
2023-01-28T11:32:01.747Z,13.27
2023-01-28T11:34:34.841Z,13.48
2023-01-28T11:37:12.938Z,13.35
2023-01-28T11:39:39.813Z,14.85
2023-01-28T11:42:20.548Z,13.10
2023-01-28T11:44:49.149Z,13.85
2023-01-28T11:47:46.708Z,14.52
2023-01-28T11:50:36.099Z,12.52
2023-01-28T11:53:40.288Z,10.40
2023-01-28T11:56:37.343Z,11.82
2023-01-28T11:59:44.745Z,11.98
2023-01-28T12:02:35.634Z,10.15
2023-01-28T12:08:24.990Z,8.00
2023-01-28T12:11:45.199Z,11.75
2023-01-28T12:14:45.027Z,10.63
2023-01-28T12:17:46.851Z,11.68
2023-01-28T12:20:31.344Z,10.35
2023-01-28T12:23:10.244Z,11.30
2023-01-28T12:26:13.934Z,11.85
2023-01-28T12:28:58.363Z,12.90
2023-01-28T12:31:34.207Z,10.85
2023-01-28T12:34:31.721Z,12.02
2023-01-28T12:37:04.716Z,13.60
2023-01-28T12:39:31.453Z,11.70
2023-01-28T12:42:17.287Z,13.98
2023-01-28T12:45:00.554Z,14.43
2023-01-28T12:47:36.163Z,13.77
2023-01-28T12:50:33.542Z,12.90
2023-01-28T12:53:13.702Z,13.05
2023-01-28T12:55:47.929Z,14.93
2023-01-28T12:58:40.893Z,11.50
2023-01-28T13:01:18.570Z,11.65
2023-01-28T13:04:06.702Z,10.95
2023-01-28T13:06:50.959Z,10.57
2023-01-28T13:09:26.075Z,12.43
2023-01-28T13:11:59.521Z,12.95
2023-01-28T13:14:33.419Z,12.57
2023-01-28T13:17:26.728Z,12.52
2023-01-28T13:19:53.969Z,10.73
2023-01-28T13:22:35.255Z,9.38
2023-01-28T13:25:30.003Z,13.65
2023-01-28T13:28:06.968Z,9.63
2023-01-28T13:30:47.481Z,9.60
2023-01-28T13:33:33.359Z,12.15
2023-01-28T13:36:24.471Z,12.27
2023-01-28T13:39:27.998Z,12.70
2023-01-28T13:42:10.180Z,9.25
2023-01-28T13:44:39.040Z,9.60
2023-01-28T13:47:05.775Z,13.18
2023-01-28T13:49:49.664Z,11.55
2023-01-28T13:52:25.396Z,11.30
2023-01-28T13:55:29.384Z,10.43
2023-01-28T13:58:06.372Z,7.55
2023-01-28T14:01:25.204Z,8.15
2023-01-28T14:04:23.066Z,11.48
2023-01-28T14:07:11.736Z,10.65
2023-01-28T14:10:18.768Z,9.98
2023-01-28T14:13:12.887Z,8.52
2023-01-28T14:16:17.621Z,10.45
2023-01-28T14:18:48.695Z,10.50
2023-01-28T14:21:23.103Z,11.45
2023-01-28T14:24:00.043Z,11.38
2023-01-28T14:26:55.962Z,14.27
2023-01-28T14:29:37.919Z,14.63
2023-01-28T14:32:28.761Z,12.82
2023-01-28T14:35:02.105Z,12.35
2023-01-28T14:37:32.018Z,11.45
2023-01-28T14:40:07.839Z,12.00
2023-01-28T14:42:46.252Z,11.55
2023-01-28T14:45:43.919Z,9.57
2023-01-28T14:48:38.427Z,10.35
2023-01-28T14:51:43.267Z,10.68
2023-01-28T14:54:19.048Z,11.13
2023-01-28T14:56:59.937Z,11.52
2023-01-28T15:01:59.870Z,7.97
2023-01-28T15:04:33.952Z,14.05
2023-01-28T15:07:19.985Z,13.27
2023-01-28T15:09:59.672Z,9.45
2023-01-28T15:12:26.864Z,10.30
2023-01-28T15:14:53.830Z,10.73
2023-01-28T15:17:28.005Z,11.32
2023-01-28T15:19:57.713Z,11.52
2023-01-28T15:22:28.582Z,12.38
2023-01-28T15:27:32.433Z,7.93
2023-01-28T15:30:00.169Z,9.48
2023-01-28T15:32:31.001Z,8.73
2023-01-28T15:37:27.752Z,7.72
2023-01-28T15:40:06.525Z,8.38
2023-01-28T15:42:34.827Z,10.77
2023-01-28T15:45:01.874Z,10.63
2023-01-28T15:47:35.099Z,10.57
2023-01-28T15:50:07.072Z,11.00
2023-01-28T15:52:40.749Z,12.30
2023-01-28T15:55:33.795Z,10.65
2023-01-28T15:58:29.923Z,9.35
2023-01-28T16:01:23.730Z,9.45
2023-01-28T16:04:21.757Z,10.77
2023-01-28T16:06:49.443Z,10.45
2023-01-28T16:09:28.252Z,9.82
2023-01-28T16:12:04.442Z,9.73
2023-01-28T16:14:45.883Z,9.85
2023-01-28T16:17:19.815Z,8.80
2023-01-28T16:19:57.779Z,12.35
2023-01-28T16:22:40.315Z,11.18
2023-01-28T16:25:28.506Z,11.13
2023-01-28T16:28:00.240Z,8.70
2023-01-28T16:30:28.835Z,9.73
2023-01-28T16:32:56.739Z,8.50
2023-01-28T16:35:42.606Z,11.55
2023-01-28T16:38:17.219Z,10.80
2023-01-28T16:40:46.861Z,10.65
2023-01-28T16:43:16.578Z,20.85
2023-01-28T16:45:44.471Z,11.45
2023-01-28T16:48:12.151Z,9.90
2023-01-28T16:50:41.871Z,14.13
2023-01-28T16:53:33.945Z,15.65
2023-01-28T16:56:01.377Z,18.58
2023-01-28T16:58:28.863Z,16.02
2023-01-28T17:00:56.282Z,15.25
2023-01-28T17:03:23.878Z,15.90
2023-01-28T17:05:50.892Z,13.70
2023-01-28T17:08:17.923Z,18.10
2023-01-28T17:10:44.835Z,15.18
2023-01-28T17:13:12.359Z,13.32
2023-01-28T17:15:39.492Z,12.68
2023-01-28T17:18:06.761Z,26.98
2023-01-28T17:20:37.625Z,22.88
2023-01-28T17:23:07.064Z,23.30
2023-01-28T17:25:41.386Z,16.40
2023-01-28T17:28:10.143Z,12.63
2023-01-28T17:30:41.569Z,18.27
2023-01-28T17:33:09.332Z,15.40
2023-01-28T17:35:36.484Z,13.52
2023-01-28T17:38:05.416Z,13.77
2023-01-28T17:40:33.490Z,12.65
2023-01-28T17:43:00.399Z,15.02
2023-01-28T17:45:31.367Z,15.05
2023-01-28T17:48:18.714Z,14.48
2023-01-28T17:50:45.620Z,12.88
2023-01-28T17:53:12.726Z,11.77
2023-01-28T17:55:39.737Z,13.82
2023-01-28T17:58:06.880Z,20.15
2023-01-28T18:00:33.845Z,13.38
2023-01-28T18:03:00.796Z,16.63
2023-01-28T18:05:27.707Z,15.32
2023-01-28T18:07:54.795Z,15.40
2023-01-28T18:10:21.750Z,18.75
2023-01-28T18:12:48.614Z,19.83
2023-01-28T18:15:16.261Z,16.02
2023-01-28T18:17:43.403Z,17.20
2023-01-28T18:20:11.148Z,16.55
2023-01-28T18:22:38.064Z,14.90
2023-01-28T18:25:05.589Z,15.82
2023-01-28T18:27:32.477Z,14.88
2023-01-28T18:29:59.354Z,15.00
2023-01-28T18:32:26.618Z,17.23
2023-01-28T18:34:53.492Z,14.02
2023-01-28T18:37:20.360Z,15.52
2023-01-28T18:39:47.174Z,15.18
2023-01-28T18:42:14.491Z,16.45
2023-01-28T18:44:41.453Z,17.40
2023-01-28T18:47:08.383Z,15.07
2023-01-28T18:49:35.204Z,17.58
2023-01-28T18:52:02.745Z,16.60
2023-01-28T18:54:29.693Z,18.17
2023-01-28T18:56:56.609Z,13.90
2023-01-28T18:59:23.565Z,16.42
2023-01-28T19:01:51.330Z,19.65
2023-01-28T19:04:19.134Z,17.92
2023-01-28T19:06:47.428Z,18.38
2023-01-28T19:12:29.803Z,15.13
2023-01-28T19:14:57.349Z,17.00
2023-01-28T19:17:24.429Z,17.35
2023-01-28T19:19:51.364Z,17.40
2023-01-28T19:22:18.537Z,19.73
2023-01-28T19:24:45.540Z,13.63
2023-01-28T19:27:12.419Z,15.80
2023-01-28T19:29:39.279Z,16.05
2023-01-28T19:32:06.230Z,17.38
2023-01-28T19:34:33.126Z,15.18
2023-01-28T19:37:00.090Z,17.10
2023-01-28T19:39:26.957Z,18.27
2023-01-28T19:41:55.699Z,15.15
2023-01-28T19:44:22.866Z,15.48
2023-01-28T19:46:49.713Z,16.23
2023-01-28T19:49:16.498Z,17.52
2023-01-28T19:51:44.550Z,15.90
2023-01-28T19:54:12.221Z,16.33
2023-01-28T19:56:39.220Z,17.08
2023-01-28T19:59:06.536Z,15.00
2023-01-28T20:01:36.042Z,16.63
2023-01-28T20:04:04.780Z,18.02
2023-01-28T20:06:33.116Z,15.30
2023-01-28T20:09:05.921Z,16.80
2023-01-28T20:11:32.864Z,17.20
2023-01-28T20:14:00.134Z,17.17
2023-01-28T20:16:33.709Z,19.75
2023-01-28T20:19:07.545Z,17.83
2023-01-28T20:21:35.650Z,16.70
2023-01-28T20:24:03.737Z,16.17
2023-01-28T20:26:38.083Z,16.67
2023-01-28T20:29:12.054Z,16.73
2023-01-28T20:31:40.848Z,18.10
2023-01-28T20:34:12.645Z,17.80
2023-01-28T20:36:39.522Z,16.58
2023-01-28T20:39:06.384Z,17.02
2023-01-28T20:41:33.427Z,18.33
2023-01-28T20:44:00.535Z,17.17
2023-01-28T20:46:31.872Z,19.17
2023-01-28T20:49:03.039Z,18.83
2023-01-28T20:51:34.533Z,19.92
2023-01-28T20:54:02.895Z,19.45
2023-01-28T20:56:31.215Z,20.73
2023-01-28T20:59:02.716Z,18.00
2023-01-28T21:01:34.502Z,18.38
2023-01-28T21:04:02.278Z,17.85
2023-01-28T21:06:29.647Z,18.23
2023-01-28T21:08:57.260Z,17.80
2023-01-28T21:11:26.380Z,17.75
2023-01-28T21:13:54.091Z,18.50
2023-01-28T21:16:21.423Z,16.52
2023-01-28T21:18:48.729Z,19.00
2023-01-28T21:21:28.841Z,18.20
2023-01-28T21:23:58.690Z,19.55
2023-01-28T21:26:26.765Z,19.07
2023-01-28T21:28:55.595Z,21.73
2023-01-28T21:31:25.596Z,18.75
2023-01-28T21:33:56.479Z,19.00
2023-01-28T21:36:25.086Z,19.85
2023-01-28T21:39:00.433Z,19.08
2023-01-28T21:41:27.962Z,18.05
2023-01-28T21:43:57.570Z,19.58
2023-01-28T21:46:34.936Z,20.70
2023-01-28T21:49:05.519Z,18.77
2023-01-28T21:51:35.493Z,18.48
2023-01-28T21:54:11.607Z,18.60
2023-01-28T21:56:38.861Z,16.85
2023-01-28T21:59:24.167Z,15.43
2023-01-28T22:01:51.112Z,18.52
2023-01-28T22:04:18.062Z,19.35
2023-01-28T22:06:45.328Z,20.83
2023-01-28T22:09:13.848Z,20.23
2023-01-28T22:11:42.699Z,20.77
2023-01-28T22:14:10.329Z,26.52
2023-01-28T22:16:37.434Z,19.98
2023-01-28T22:19:04.802Z,19.35
2023-01-28T22:21:31.791Z,20.73
2023-01-28T22:23:58.800Z,18.98
2023-01-28T22:26:25.812Z,23.20
2023-01-28T22:28:52.627Z,21.85
2023-01-28T22:31:19.605Z,20.50
2023-01-28T22:33:46.587Z,20.15
2023-01-28T22:36:16.066Z,19.25
2023-01-28T22:38:45.183Z,19.90
2023-01-28T22:41:19.014Z,19.83
2023-01-28T22:43:47.150Z,17.25
2023-01-28T22:46:16.067Z,21.50
2023-01-28T22:48:43.475Z,22.98
2023-01-28T22:51:23.678Z,20.35
2023-01-28T22:53:52.241Z,19.70
2023-01-28T22:56:23.183Z,17.30
2023-01-28T22:59:00.005Z,20.38
2023-01-28T23:01:28.060Z,18.17
2023-01-28T23:03:56.204Z,21.17
2023-01-28T23:06:25.285Z,20.13
2023-01-28T23:08:52.508Z,19.65
2023-01-28T23:11:25.592Z,20.38
2023-01-28T23:14:17.195Z,20.30
2023-01-28T23:17:03.360Z,21.08
2023-01-28T23:19:49.234Z,16.52
2023-01-28T23:22:50.348Z,17.15
2023-01-28T23:25:18.851Z,15.35
2023-01-28T23:27:46.098Z,18.60
2023-01-28T23:30:14.508Z,19.10
2023-01-28T23:32:49.667Z,16.48
2023-01-28T23:35:18.919Z,19.98
2023-01-28T23:37:47.115Z,20.23
2023-01-28T23:56:35.825Z,16.95
2023-01-28T23:59:02.878Z,16.27
